This is the latest recevied weather packets stored in our database for station/object WC4PEM-6. If no packets are shown the sender has not sent any weather packets the latest 10 day(s).
| Time | Temp. | Humidity | Pressure | Rain* | Wind** | Luminosity | Snow |
|---|---|---|---|---|---|---|---|
| 1778083503 | 30.56° C | 53% | 1016.4 hPa | 0 mm | - | - | - |
| 1778083289 | 30.56° C | 54% | 1016.4 hPa | 0 mm | - | - | - |
| 1778083203 | 30.56° C | 54% | 1016.4 hPa | 0 mm | - | - | - |
| 1778083032 | 30° C | 55% | 1016.4 hPa | 0 mm | - | - | - |
| 1778082903 | 30° C | 55% | 1016.4 hPa | 0 mm | - | - | - |
| 1778082603 | 30° C | 58% | 1016.5 hPa | 0 mm | - | - | - |
| 1778082427 | 29.44° C | 58% | 1016.6 hPa | 0 mm | - | - | - |
| 1778082303 | 29.44° C | 58% | 1016.6 hPa | 0 mm | - | - | - |
| 1778082003 | 29.44° C | 58% | 1016.6 hPa | 0 mm | - | - | - |
| 1778081703 | 28.89° C | 58% | 1016.7 hPa | 0 mm | - | - | - |
| 1778081403 | 29.44° C | 55% | 1016.7 hPa | 0 mm | - | - | - |
| 1778081162 | 29.44° C | 54% | 1016.7 hPa | 0 mm | - | - | - |
| 1778081103 | 29.44° C | 54% | 1016.7 hPa | 0 mm | - | - | - |
| 1778080803 | 29.44° C | 57% | 1016.7 hPa | 0 mm | - | - | - |
| 1778080503 | 28.89° C | 62% | 1016.7 hPa | 0 mm | - | - | - |
| 1778080203 | 28.89° C | 61% | 1016.6 hPa | 0 mm | - | - | - |
| 1778080005 | 28.33° C | 64% | 1016.5 hPa | 0 mm | - | - | - |
| 1778079903 | 28.33° C | 64% | 1016.5 hPa | 0 mm | - | - | - |
| 1778079635 | 28.33° C | 65% | 1016.6 hPa | 0 mm | - | - | - |
| 1778079603 | 28.33° C | 65% | 1016.6 hPa | 0 mm | - | - | - |
| 1778079388 | 28.89° C | 64% | 1016.6 hPa | 0 mm | - | - | - |
| 1778079303 | 28.33° C | 65% | 1016.8 hPa | 0 mm | - | - | - |
| 1778079303 | 28.89° C | 64% | 1016.6 hPa | 0 mm | - | - | - |
| 1778079003 | 28.33° C | 65% | 1016.7 hPa | 0 mm | - | - | - |
| 1778078832 | 28.33° C | 65% | 1016.8 hPa | 0 mm | - | - | - |
* Rain latest hour (hover to see other rain measurements)
** Current wind speed in m/s (hover to see current wind gust speed)